Time;durP1;ratioP1;P1;durP2;ratioP2;P2;SDS_P1;SDS_P2;PMS_P1;PMS_P2;Temp;Humidity;BMP_temperature;BMP_pressure;BME280_temperature;BME280_humidity;BME280_pressure;Samples;Min_cycle;Max_cycle;Signal;HPM_P1;HPM_P2
2022/11/18 00:01:00;;;;;;;;;;;;;;;27.14;53.19;95906.46;608498;233;67234;-68
2022/11/18 00:03:27;;;;;;;;;;;;;;;27.15;52.53;95918.06;608338;233;66862;-68
2022/11/18 00:05:57;;;;;;;;;;;;;;;27.14;50.56;95916.47;608428;233;65059;-69
2022/11/18 00:08:25;;;;;;;;;;;;;;;27.13;52.08;95912.98;608453;233;67292;-68
2022/11/18 00:10:53;;;;;;;;;;;;;;;27.12;53.97;95911.42;608385;233;68394;-68
2022/11/18 00:16:07;;;;;;;;;;;;;;;27.11;53.12;95914.45;608420;233;67127;-68
2022/11/18 00:18:35;;;;;;;;;;;;;;;27.09;51.55;95916.69;608444;233;64785;-68
2022/11/18 00:21:07;;;;;;;;;;;;;;;27.10;51.58;95910.97;608396;233;62740;-68
2022/11/18 00:23:34;;;;;;;;;;;;;;;27.09;52.48;95905.90;608457;233;67182;-67
2022/11/18 00:26:06;;;;;;;;;;;;;;;27.06;53.18;95904.66;608454;233;67093;-67
2022/11/18 00:28:34;;;;;;;;;;;;;;;27.07;53.35;95917.04;608548;233;65208;-66
2022/11/18 00:31:02;;;;;;;;;;;;;;;27.06;52.69;95912.75;608453;233;66938;-66
2022/11/18 00:33:30;;;;;;;;;;;;;;;27.06;54.09;95920.84;608415;233;67020;-66
2022/11/18 00:35:58;;;;;;;;;;;;;;;27.04;53.19;95919.60;608458;233;62927;-66
2022/11/18 00:38:26;;;;;;;;;;;;;;;27.03;53.32;95918.04;608438;233;67531;-67
2022/11/18 00:41:04;;;;;;;;;;;;;;;27.01;52.97;95913.78;608503;233;67321;-67
2022/11/18 00:43:32;;;;;;;;;;;;;;;27.00;53.94;95916.80;608452;233;62859;-69
2022/11/18 00:45:59;;;;;;;;;;;;;;;26.99;54.38;95913.33;608451;233;64859;-69
2022/11/18 00:48:27;;;;;;;;;;;;;;;26.98;52.31;95919.04;608476;233;64783;-69
2022/11/18 00:50:55;;;;;;;;;;;;;;;26.96;52.40;95913.22;608445;233;63036;-69
2022/11/18 00:53:23;;;;;;;;;;;;;;;26.96;53.69;95911.30;608482;233;67013;-68
2022/11/18 00:55:52;;;;;;;;;;;;;;;26.96;53.00;95913.22;608521;233;67135;-67
2022/11/18 00:58:19;;;;;;;;;;;;;;;26.95;52.57;95911.62;608478;233;65296;-67
2022/11/18 01:00:48;;;;;;;;;;;;;;;26.94;52.49;95899.28;608402;233;67224;-68
2022/11/18 01:03:16;;;;;;;;;;;;;;;26.92;52.61;95905.00;608461;233;64850;-68
2022/11/18 01:05:43;;;;;;;;;;;;;;;26.93;54.12;95908.50;608473;233;63058;-68
2022/11/18 01:08:11;;;;;;;;;;;;;;;26.94;53.31;95901.98;608491;233;65004;-68
2022/11/18 01:10:40;;;;;;;;;;;;;;;26.90;54.15;95907.27;608481;233;64920;-68
2022/11/18 01:13:28;;;;;;;;;;;;;;;26.91;54.42;95903.44;608443;233;65119;-68
2022/11/18 01:15:42;;;;;;;;;;;;;;;26.89;53.90;95897.59;606705;233;67166;-68
2022/11/18 01:18:10;;;;;;;;;;;;;;;26.89;53.07;95894.11;608492;233;66544;-68
2022/11/18 01:20:37;;;;;;;;;;;;;;;26.88;53.78;95890.63;608545;233;65073;-68
2022/11/18 01:23:04;;;;;;;;;;;;;;;26.87;52.93;95890.95;608456;233;66968;-68
2022/11/18 01:25:32;;;;;;;;;;;;;;;26.87;53.71;95888.26;608449;233;67061;-68
2022/11/18 01:28:00;;;;;;;;;;;;;;;26.86;54.67;95884.00;608465;233;65146;-68
2022/11/18 01:30:27;;;;;;;;;;;;;;;26.83;53.05;95874.67;608454;233;66974;-68
2022/11/18 01:32:55;;;;;;;;;;;;;;;26.83;50.97;95868.50;606750;233;66838;-68
2022/11/18 01:35:22;;;;;;;;;;;;;;;26.81;52.78;95870.74;603565;235;65076;-68
2022/11/18 01:37:49;;;;;;;;;;;;;;;26.81;54.07;95868.05;603511;235;66890;-69
2022/11/18 01:40:17;;;;;;;;;;;;;;;26.79;51.66;95865.67;603461;235;67128;-68
2022/11/18 01:42:44;;;;;;;;;;;;;;;26.78;52.80;95864.89;603545;235;65207;-68
2022/11/18 01:45:16;;;;;;;;;;;;;;;26.78;52.98;95859.50;603496;234;66919;-70
2022/11/18 01:47:54;;;;;;;;;;;;;;;26.77;51.26;95863.33;603481;235;66928;-69
2022/11/18 01:50:23;;;;;;;;;;;;;;;26.76;53.35;95848.30;603403;234;63672;-69
2022/11/18 01:52:52;;;;;;;;;;;;;;;26.75;55.33;95852.09;603477;234;65075;-68
2022/11/18 01:55:21;;;;;;;;;;;;;;;26.74;53.01;95855.14;603526;235;67177;-68
2022/11/18 01:57:49;;;;;;;;;;;;;;;26.73;53.36;95851.64;603485;233;63115;-68
2022/11/18 02:00:17;;;;;;;;;;;;;;;26.72;53.50;95851.98;603489;234;67349;-68
2022/11/18 02:02:45;;;;;;;;;;;;;;;26.70;52.56;95848.84;603590;235;67089;-68
2022/11/18 02:05:13;;;;;;;;;;;;;;;26.70;51.59;95856.92;603513;235;65029;-68
2022/11/18 02:07:42;;;;;;;;;;;;;;;26.69;53.40;95850.75;603521;234;65001;-68
2022/11/18 02:10:11;;;;;;;;;;;;;;;26.68;53.10;95851.88;603529;235;67084;-68
2022/11/18 02:12:38;;;;;;;;;;;;;;;26.68;54.64;95849.19;603351;234;62969;-68
2022/11/18 02:15:06;;;;;;;;;;;;;;;26.66;53.08;95854.13;603539;234;64840;-68
2022/11/18 02:17:41;;;;;;;;;;;;;;;26.65;53.95;95857.92;603524;234;67031;-68
2022/11/18 02:20:11;;;;;;;;;;;;;;;26.65;55.43;95855.22;603524;235;62922;-68
2022/11/18 02:22:56;;;;;;;;;;;;;;;26.65;54.05;95855.22;603485;235;67312;-68
2022/11/18 02:25:31;;;;;;;;;;;;;;;26.64;53.01;95853.66;603497;235;67074;-69
2022/11/18 02:28:00;;;;;;;;;;;;;;;26.62;50.67;95863.98;603526;234;63025;-68
2022/11/18 02:30:29;;;;;;;;;;;;;;;26.63;54.11;95864.77;603531;235;64909;-68
2022/11/18 02:33:01;;;;;;;;;;;;;;;26.61;53.39;95854.34;605250;233;64716;-68
2022/11/18 02:35:30;;;;;;;;;;;;;;;26.61;54.63;95853.55;608479;233;62901;-68
2022/11/18 02:38:02;;;;;;;;;;;;;;;26.59;53.04;95858.48;608361;233;67306;-68
2022/11/18 02:40:31;;;;;;;;;;;;;;;26.59;55.59;95855.79;607035;233;67411;-68
2022/11/18 02:43:00;;;;;;;;;;;;;;;26.56;52.43;95858.03;608302;233;65198;-68
2022/11/18 02:45:29;;;;;;;;;;;;;;;26.56;53.55;95849.16;608446;233;64647;-68
2022/11/18 02:47:58;;;;;;;;;;;;;;;26.54;52.31;95846.79;608443;233;64970;-69
2022/11/18 02:50:27;;;;;;;;;;;;;;;26.53;53.59;95847.92;608408;233;62815;-70
2022/11/18 02:52:56;;;;;;;;;;;;;;;26.52;54.53;95845.58;608425;233;67094;-69
2022/11/18 02:55:25;;;;;;;;;;;;;;;26.53;54.16;95849.84;608321;233;66886;-69
2022/11/18 02:57:53;;;;;;;;;;;;;;;26.50;52.67;95856.65;608536;233;64899;-69
2022/11/18 03:00:20;;;;;;;;;;;;;;;26.50;53.14;95853.17;608434;233;67059;-69
2022/11/18 03:02:49;;;;;;;;;;;;;;;26.49;53.29;95848.89;608432;233;67086;-69
2022/11/18 03:05:18;;;;;;;;;;;;;;;26.47;53.14;95851.93;608411;233;65048;-69
2022/11/18 03:07:47;;;;;;;;;;;;;;;26.47;53.17;95851.16;607690;233;67410;-69
2022/11/18 03:10:15;;;;;;;;;;;;;;;26.47;55.20;95856.54;608499;233;67021;-69
2022/11/18 03:12:44;;;;;;;;;;;;;;;26.47;54.43;95848.45;608467;233;65000;-69
2022/11/18 03:15:25;;;;;;;;;;;;;;;26.45;53.50;95845.30;608442;233;65218;-69
2022/11/18 03:18:13;;;;;;;;;;;;;;;26.45;55.39;95850.69;608434;233;64780;-69
2022/11/18 03:20:51;;;;;;;;;;;;;;;26.43;53.67;95850.23;608366;233;65011;-68
2022/11/18 03:23:26;;;;;;;;;;;;;;;26.43;55.02;95866.39;608388;233;67122;-69
2022/11/18 03:25:55;;;;;;;;;;;;;;;26.42;55.34;95859.45;608376;233;67110;-68
2022/11/18 03:28:40;;;;;;;;;;;;;;;26.41;56.15;95858.66;608505;233;63074;-68
2022/11/18 03:31:09;;;;;;;;;;;;;;;26.40;55.35;95856.29;608444;233;67202;-70
2022/11/18 03:33:50;;;;;;;;;;;;;;;26.39;55.11;95855.51;608384;233;72349;-69
2022/11/18 03:36:19;;;;;;;;;;;;;;;26.37;54.94;95863.13;608460;233;65306;-69
2022/11/18 03:38:48;;;;;;;;;;;;;;;26.38;53.95;95867.38;608385;233;67328;-69
2022/11/18 03:41:17;;;;;;;;;;;;;;;26.36;54.91;95861.56;608443;233;64837;-69
2022/11/18 03:43:46;;;;;;;;;;;;;;;26.35;57.58;95863.48;608490;233;65069;-69
2022/11/18 03:46:24;;;;;;;;;;;;;;;26.33;54.22;95863.02;608329;233;67319;-69
2022/11/18 03:48:53;;;;;;;;;;;;;;;26.32;54.13;95866.81;608395;233;66908;-69
2022/11/18 03:51:22;;;;;;;;;;;;;;;26.32;56.04;95857.95;608445;233;65044;-69
2022/11/18 03:53:51;;;;;;;;;;;;;;;26.32;55.83;95855.26;608250;233;64937;-69
2022/11/18 03:56:20;;;;;;;;;;;;;;;26.30;55.52;95860.99;608377;233;67409;-69
2022/11/18 03:58:50;;;;;;;;;;;;;;;26.30;54.17;95865.57;608514;233;65200;-69
2022/11/18 04:01:19;;;;;;;;;;;;;;;26.28;56.75;95860.53;608453;233;67211;-69
2022/11/18 04:03:46;;;;;;;;;;;;;;;26.28;55.25;95862.45;608431;233;67165;-69
2022/11/18 04:06:31;;;;;;;;;;;;;;;26.27;55.17;95864.36;608483;233;63816;-69
2022/11/18 04:09:00;;;;;;;;;;;;;;;26.26;51.87;95867.38;593475;238;67208;-69
2022/11/18 04:14:15;;;;;;;;;;;;;;;26.23;52.69;95862.66;608544;233;63015;-69
2022/11/18 04:16:43;;;;;;;;;;;;;;;26.23;55.46;95866.12;608439;233;64690;-67
2022/11/18 04:19:11;;;;;;;;;;;;;;;26.23;55.07;95868.04;608495;233;67094;-67
2022/11/18 04:21:38;;;;;;;;;;;;;;;26.22;56.65;95869.14;608436;233;65001;-67
2022/11/18 04:24:06;;;;;;;;;;;;;;;26.20;56.04;95866.80;608446;233;65349;-67
2022/11/18 04:26:34;;;;;;;;;;;;;;;26.19;54.84;95862.54;608468;233;67075;-67
2022/11/18 04:29:02;;;;;;;;;;;;;;;26.20;54.79;95868.70;608478;233;65064;-67
2022/11/18 04:31:29;;;;;;;;;;;;;;;26.18;55.92;95860.17;608430;233;67301;-67
2022/11/18 04:33:58;;;;;;;;;;;;;;;26.17;54.57;95864.77;604562;233;67060;-67
2022/11/18 04:36:26;;;;;;;;;;;;;;;26.15;54.28;95861.61;603527;234;65052;-67
2022/11/18 04:38:54;;;;;;;;;;;;;;;26.15;53.46;95861.61;603558;235;67241;-67
2022/11/18 04:41:54;;;;;;;;;;;;;;;26.14;52.95;95860.05;603558;234;67077;-67
2022/11/18 04:43:50;;;;;;;;;;;;;;;26.13;53.13;95864.63;602495;235;63106;-67
2022/11/18 04:46:18;;;;;;;;;;;;;;;26.12;52.59;95863.06;603522;234;64798;-67
2022/11/18 04:48:50;;;;;;;;;;;;;;;26.11;51.53;95864.20;603500;235;46462;-67
2022/11/18 04:51:17;;;;;;;;;;;;;;;26.11;51.00;95860.72;603517;235;65118;-67
2022/11/18 04:53:45;;;;;;;;;;;;;;;26.12;55.61;95867.67;603560;234;67202;-67
2022/11/18 04:56:12;;;;;;;;;;;;;;;26.08;51.98;95872.13;603506;235;67001;-67
2022/11/18 04:58:40;;;;;;;;;;;;;;;26.07;51.76;95857.89;603517;235;65126;-67
2022/11/18 05:01:07;;;;;;;;;;;;;;;26.07;52.92;95865.18;603532;233;67177;-67
2022/11/18 05:03:35;;;;;;;;;;;;;;;26.06;53.46;95867.09;603490;235;64632;-67
2022/11/18 05:06:02;;;;;;;;;;;;;;;26.06;53.02;95858.23;603511;235;62985;-67
2022/11/18 05:08:31;;;;;;;;;;;;;;;26.04;53.54;95871.23;603528;234;64925;-67
2022/11/18 05:13:29;;;;;;;;;;;;;;;26.03;51.82;95858.90;599281;234;46274;-67
2022/11/18 05:15:59;;;;;;;;;;;;;;;26.03;54.44;95880.44;603521;234;67264;-67
2022/11/18 05:18:26;;;;;;;;;;;;;;;26.01;51.41;95866.52;603452;235;67030;-67
2022/11/18 05:20:53;;;;;;;;;;;;;;;26.01;51.06;95861.13;603311;235;64908;-67
2022/11/18 05:23:21;;;;;;;;;;;;;;;25.99;51.94;95869.52;602977;232;67183;-67
2022/11/18 05:25:48;;;;;;;;;;;;;;;26.00;54.53;95875.69;596627;235;66675;-67
2022/11/18 05:28:16;;;;;;;;;;;;;;;25.98;52.29;95869.87;604106;235;63080;-67
2022/11/18 05:30:43;;;;;;;;;;;;;;;25.96;51.67;95874.79;604147;235;64360;-67
2022/11/18 05:33:11;;;;;;;;;;;;;;;25.95;52.67;95875.92;596204;236;66845;-67
2022/11/18 05:35:38;;;;;;;;;;;;;;;25.95;50.79;95878.61;601387;233;65071;-67
2022/11/18 05:38:06;;;;;;;;;;;;;;;25.93;52.29;95881.62;593297;239;67151;-67
2022/11/18 05:40:33;;;;;;;;;;;;;;;25.94;51.18;95879.70;593848;239;66816;-67
2022/11/18 05:43:13;;;;;;;;;;;;;;;25.92;51.99;95880.05;601523;235;65080;-67
2022/11/18 05:45:41;;;;;;;;;;;;;;;25.92;51.98;95874.67;593371;239;66895;-67
2022/11/18 05:48:08;;;;;;;;;;;;;;;25.91;53.17;95873.08;594040;239;66683;-70
2022/11/18 05:50:37;;;;;;;;;;;;;;;25.90;51.89;95866.12;601451;236;64978;-69
2022/11/18 05:53:04;;;;;;;;;;;;;;;25.89;50.89;95870.73;593352;239;67072;-69
2022/11/18 05:55:36;;;;;;;;;;;;;;;25.89;51.55;95875.30;594084;239;66863;-69
2022/11/18 05:58:04;;;;;;;;;;;;;;;25.89;50.99;95875.30;601471;235;62676;-69
2022/11/18 06:00:32;;;;;;;;;;;;;;;25.86;53.38;95876.78;593323;239;65905;-70
2022/11/18 06:03:00;;;;;;;;;;;;;;;25.87;51.87;95877.56;594078;239;64846;-69
2022/11/18 06:05:27;;;;;;;;;;;;;;;25.86;52.18;95876.78;601410;235;65213;-69
2022/11/18 06:07:56;;;;;;;;;;;;;;;25.85;50.04;95875.19;593219;239;67293;-69
2022/11/18 06:10:25;;;;;;;;;;;;;;;25.84;51.38;95873.62;594073;239;67040;-69
2022/11/18 06:12:57;;;;;;;;;;;;;;;25.84;53.31;95868.24;601334;235;48008;-69
2022/11/18 06:15:26;;;;;;;;;;;;;;;25.84;52.37;95876.31;592764;239;64888;-69
2022/11/18 06:18:04;;;;;;;;;;;;;;;25.84;52.24;95872.84;594000;239;66824;-70
2022/11/18 06:20:33;;;;;;;;;;;;;;;25.84;50.52;95872.84;601060;235;65170;-70
2022/11/18 06:23:00;;;;;;;;;;;;;;;25.83;48.84;95880.11;593324;239;65013;-69
2022/11/18 06:25:29;;;;;;;;;;;;;;;25.82;51.37;95886.58;592679;239;67343;-69
2022/11/18 06:27:58;;;;;;;;;;;;;;;25.82;51.01;95891.97;601470;235;65202;-69
2022/11/18 06:30:25;;;;;;;;;;;;;;;25.84;53.78;95887.08;593970;238;64919;-69
2022/11/18 06:32:53;;;;;;;;;;;;;;;25.84;54.63;95880.91;600710;235;64910;-69
2022/11/18 06:35:20;;;;;;;;;;;;;;;25.83;53.54;95881.98;602165;233;62960;-69
2022/11/18 06:37:48;;;;;;;;;;;;;;;25.84;53.78;95879.01;602256;233;65026;-69
2022/11/18 06:40:16;;;;;;;;;;;;;;;25.84;49.73;95884.39;602128;233;66799;-69
2022/11/18 06:45:29;;;;;;;;;;;;;;;25.85;51.43;95877.09;602277;233;66669;-71
2022/11/18 06:47:59;;;;;;;;;;;;;;;25.87;51.93;95878.34;602176;233;65058;-69
2022/11/18 06:50:27;;;;;;;;;;;;;;;25.87;51.87;95875.66;602127;233;65154;-69
2022/11/18 06:52:54;;;;;;;;;;;;;;;25.87;50.88;95878.34;602210;233;67436;-67
2022/11/18 06:55:21;;;;;;;;;;;;;;;25.87;52.61;95878.34;602152;233;66979;-66
2022/11/18 06:57:49;;;;;;;;;;;;;;;25.87;50.82;95886.42;602167;233;65124;-67
2022/11/18 07:00:17;;;;;;;;;;;;;;;25.88;53.34;95884.51;601628;233;65281;-66
2022/11/18 07:02:44;;;;;;;;;;;;;;;25.86;49.27;95887.55;602140;233;67092;-66
2022/11/18 07:05:12;;;;;;;;;;;;;;;25.88;50.30;95885.29;602238;233;65055;-66
2022/11/18 07:07:39;;;;;;;;;;;;;;;25.88;51.38;95890.67;601981;233;67243;-66
2022/11/18 07:10:07;;;;;;;;;;;;;;;25.88;51.34;95890.67;600935;233;67027;-66
2022/11/18 07:12:35;;;;;;;;;;;;;;;25.89;49.83;95883.38;595385;237;65115;-65
2022/11/18 07:15:02;;;;;;;;;;;;;;;25.89;51.73;95876.12;595327;235;68197;-66
2022/11/18 07:17:30;;;;;;;;;;;;;;;25.89;49.17;95878.81;595467;238;67052;-65
2022/11/18 07:19:58;;;;;;;;;;;;;;;25.90;48.98;95874.98;595346;238;65096;-65
2022/11/18 07:22:25;;;;;;;;;;;;;;;25.91;52.05;95873.08;595363;238;67105;-65
2022/11/18 07:24:53;;;;;;;;;;;;;;;25.90;49.85;95880.38;595405;238;67092;-66
2022/11/18 07:27:20;;;;;;;;;;;;;;;25.91;52.00;95873.86;595392;238;63123;-65
2022/11/18 07:29:48;;;;;;;;;;;;;;;25.91;47.66;95875.77;588364;237;64901;-66
2022/11/18 07:32:15;;;;;;;;;;;;;;;25.91;49.47;95868.48;596282;233;64748;-66
2022/11/18 07:34:43;;;;;;;;;;;;;;;25.92;48.86;95866.59;602089;235;63045;-66
2022/11/18 07:37:11;;;;;;;;;;;;;;;25.93;51.32;95864.69;605474;229;65886;-65
2022/11/18 07:39:39;;;;;;;;;;;;;;;25.95;51.62;95862.45;610647;232;67356;-65
2022/11/18 07:42:06;;;;;;;;;;;;;;;25.95;49.47;95863.23;617571;229;65005;-67
2022/11/18 07:44:33;;;;;;;;;;;;;;;25.95;49.46;95855.16;617685;229;67347;-64
2022/11/18 07:47:01;;;;;;;;;;;;;;;25.98;48.49;95864.48;617601;229;67109;-65
2022/11/18 07:49:28;;;;;;;;;;;;;;;26.00;49.44;95856.84;617578;229;65112;-65
2022/11/18 07:51:56;;;;;;;;;;;;;;;26.01;50.21;95859.22;617609;229;67242;-65
2022/11/18 07:54:23;;;;;;;;;;;;;;;26.03;49.51;95850.82;613874;229;67048;-67
2022/11/18 07:56:51;;;;;;;;;;;;;;;26.05;52.35;95838.58;609423;233;65057;-65
2022/11/18 07:59:18;;;;;;;;;;;;;;;26.07;52.69;95846.34;609271;233;66826;-65
2022/11/18 08:01:46;;;;;;;;;;;;;;;26.07;51.33;95835.56;609359;233;68205;-65
2022/11/18 08:04:14;;;;;;;;;;;;;;;26.09;53.42;95823.34;609288;233;65060;-63
2022/11/18 08:06:41;;;;;;;;;;;;;;;26.09;53.17;95820.66;609369;233;65295;-64
2022/11/18 08:09:09;;;;;;;;;;;;;;;26.09;53.17;95812.58;609429;233;64971;-64
2022/11/18 08:11:37;;;;;;;;;;;;;;;26.08;54.03;95813.70;609348;233;62945;-64
2022/11/18 08:14:04;;;;;;;;;;;;;;;26.08;54.98;95823.66;609320;233;65000;-66
2022/11/18 08:16:32;;;;;;;;;;;;;;;26.08;54.85;95823.66;609388;233;65078;-65
2022/11/18 08:19:02;;;;;;;;;;;;;;;26.08;53.19;95826.36;609320;233;64872;-66
2022/11/18 08:21:29;;;;;;;;;;;;;;;26.07;54.41;95822.11;609389;233;65905;-69
2022/11/18 08:23:57;;;;;;;;;;;;;;;26.09;52.62;95814.48;609375;233;64843;-69
2022/11/18 08:26:25;;;;;;;;;;;;;;;26.07;52.57;95816.72;609287;233;63058;-69
2022/11/18 08:28:52;;;;;;;;;;;;;;;26.08;53.70;95818.28;609337;233;65187;-70
2022/11/18 08:31:23;;;;;;;;;;;;;;;26.08;50.72;95812.89;609379;233;64929;-69
2022/11/18 08:33:52;;;;;;;;;;;;;;;26.08;54.05;95799.44;602059;235;64930;-71
2022/11/18 08:36:21;;;;;;;;;;;;;;;26.08;53.98;95802.13;610098;232;67350;-73
2022/11/18 08:38:49;;;;;;;;;;;;;;;26.09;53.16;95798.33;608751;233;66906;-71
2022/11/18 08:41:20;;;;;;;;;;;;;;;26.08;53.67;95794.86;608763;233;65403;-71
2022/11/18 08:43:48;;;;;;;;;;;;;;;26.08;53.67;95788.66;608796;233;64829;-70
2022/11/18 08:46:15;;;;;;;;;;;;;;;26.10;53.13;95787.22;608785;233;64638;-77
2022/11/18 08:48:43;;;;;;;;;;;;;;;26.14;53.06;95787.36;608831;233;62599;-69
2022/11/18 08:51:12;;;;;;;;;;;;;;;26.15;52.00;95780.84;608827;233;64973;-71
2022/11/18 08:53:39;;;;;;;;;;;;;;;26.17;53.54;95775.91;608595;232;65318;-71
2022/11/18 08:56:07;;;;;;;;;;;;;;;26.17;52.81;95770.53;608765;233;62897;-69
2022/11/18 08:58:34;;;;;;;;;;;;;;;26.18;54.37;95761.31;608721;233;67060;-68
2022/11/18 09:01:05;;;;;;;;;;;;;;;26.20;53.61;95761.00;608690;233;67048;-68
2022/11/18 09:03:33;;;;;;;;;;;;;;;26.19;53.47;95762.09;609707;231;63744;-70
2022/11/18 09:06:08;;;;;;;;;;;;;;;26.17;53.66;95757.06;613820;231;67362;-71
2022/11/18 09:08:36;;;;;;;;;;;;;;;26.20;53.57;95758.30;613848;231;66081;-71
2022/11/18 09:11:10;;;;;;;;;;;;;;;26.19;53.30;95752.14;613932;231;65007;-70
2022/11/18 09:13:38;;;;;;;;;;;;;;;26.19;53.43;95738.67;613842;231;66849;-68
2022/11/18 09:16:22;;;;;;;;;;;;;;;26.19;53.53;95730.59;613848;231;67654;-68
2022/11/18 09:18:50;;;;;;;;;;;;;;;26.21;53.26;95714.09;613888;231;63803;-67
2022/11/18 09:21:18;;;;;;;;;;;;;;;26.21;52.20;95708.70;613840;231;67445;-67
2022/11/18 09:23:46;;;;;;;;;;;;;;;26.22;52.29;95712.95;613843;231;67050;-68
2022/11/18 09:26:15;;;;;;;;;;;;;;;26.22;54.54;95716.45;613864;231;64849;-68
2022/11/18 09:28:43;;;;;;;;;;;;;;;26.23;53.47;95711.84;613858;231;64996;-68
2022/11/18 09:31:11;;;;;;;;;;;;;;;26.22;54.39;95700.30;613828;231;64946;-69
2022/11/18 09:33:39;;;;;;;;;;;;;;;26.23;53.25;95704.55;615087;230;65062;-68
2022/11/18 09:36:14;;;;;;;;;;;;;;;26.23;52.61;95696.47;615733;230;66971;-70
2022/11/18 09:38:42;;;;;;;;;;;;;;;26.25;51.76;95699.63;615794;230;65432;-69
2022/11/18 09:41:11;;;;;;;;;;;;;;;26.27;52.02;95700.08;615804;230;63159;-70
2022/11/18 09:43:41;;;;;;;;;;;;;;;26.26;50.95;95695.80;615675;230;67039;-69
2022/11/18 09:46:28;;;;;;;;;;;;;;;26.27;53.35;95693.88;615839;230;66755;-71
2022/11/18 09:49:12;;;;;;;;;;;;;;;26.27;51.70;95686.61;615750;230;64838;-68
2022/11/18 09:51:41;;;;;;;;;;;;;;;26.28;53.59;95676.62;615741;230;66926;-69
2022/11/18 09:54:12;;;;;;;;;;;;;;;26.29;52.01;95678.96;615737;230;64850;-68
2022/11/18 09:56:40;;;;;;;;;;;;;;;26.29;54.46;95665.49;615723;230;65120;-71
2022/11/18 09:59:09;;;;;;;;;;;;;;;26.29;52.21;95651.25;615712;230;67022;-69
2022/11/18 10:01:37;;;;;;;;;;;;;;;26.28;52.05;95639.70;615859;230;66893;-71
2022/11/18 10:04:04;;;;;;;;;;;;;;;26.28;50.63;95628.92;615727;230;64995;-70
2022/11/18 10:06:33;;;;;;;;;;;;;;;26.29;52.89;95608.94;615698;230;67107;-70
2022/11/18 10:09:08;;;;;;;;;;;;;;;26.30;52.27;95615.91;615750;230;67326;-70
2022/11/18 10:11:36;;;;;;;;;;;;;;;26.28;52.94;95612.77;615594;229;63833;-69
2022/11/18 10:14:11;;;;;;;;;;;;;;;26.29;51.22;95603.55;615614;230;67246;-72
2022/11/18 10:16:43;;;;;;;;;;;;;;;26.30;51.47;95596.25;615424;230;65082;-72
2022/11/18 10:19:21;;;;;;;;;;;;;;;26.30;51.95;95594.38;615604;230;61797;-73
2022/11/18 10:21:56;;;;;;;;;;;;;;;26.29;51.10;95592.78;615566;230;64966;-64
2022/11/18 10:24:25;;;;;;;;;;;;;;;26.31;53.39;95592.45;615757;230;64972;-64
2022/11/18 10:26:56;;;;;;;;;;;;;;;26.30;50.50;95580.09;615721;230;63021;-64
2022/11/18 10:29:24;;;;;;;;;;;;;;;26.30;52.08;95586.29;615737;230;64603;-64
2022/11/18 10:31:59;;;;;;;;;;;;;;;26.30;53.49;95578.21;615738;230;66975;-61
2022/11/18 10:34:26;;;;;;;;;;;;;;;26.30;53.74;95583.59;615373;230;62964;-65
2022/11/18 10:36:58;;;;;;;;;;;;;;;26.30;54.19;95580.91;615732;230;65017;-65
2022/11/18 10:39:26;;;;;;;;;;;;;;;26.29;53.40;95579.31;611921;230;66899;-63
2022/11/18 10:41:55;;;;;;;;;;;;;;;26.30;53.74;95586.29;615653;230;62972;-64
2022/11/18 10:44:27;;;;;;;;;;;;;;;26.29;54.11;95579.31;615822;230;65142;-64
2022/11/18 10:46:54;;;;;;;;;;;;;;;26.30;54.50;95572.02;615699;230;64880;-65
2022/11/18 10:49:22;;;;;;;;;;;;;;;26.27;53.19;95568.13;615734;230;62956;-65
2022/11/18 10:51:51;;;;;;;;;;;;;;;26.28;48.35;95568.91;615675;230;64981;-65
2022/11/18 10:54:20;;;;;;;;;;;;;;;26.26;51.53;95574.61;613730;230;64865;-64
2022/11/18 10:56:56;;;;;;;;;;;;;;;26.25;50.26;95567.67;615740;230;65230;-65
2022/11/18 10:59:25;;;;;;;;;;;;;;;26.26;54.67;95573.84;615243;230;67303;-64
2022/11/18 11:02:00;;;;;;;;;;;;;;;26.25;53.60;95575.75;615694;230;64927;-65
2022/11/18 11:04:28;;;;;;;;;;;;;;;26.25;50.20;95572.28;615777;230;64969;-64
2022/11/18 11:06:57;;;;;;;;;;;;;;;26.23;53.82;95577.21;615624;230;64972;-64
2022/11/18 11:09:30;;;;;;;;;;;;;;;26.22;54.02;95581.01;615686;230;67041;-63
2022/11/18 11:11:59;;;;;;;;;;;;;;;26.22;51.06;95589.89;615731;230;65084;-63
2022/11/18 11:14:37;;;;;;;;;;;;;;;26.21;51.51;95582.92;615799;228;64962;-64
2022/11/18 11:17:21;;;;;;;;;;;;;;;26.21;49.41;95593.69;615654;230;66793;-63
2022/11/18 11:20:09;;;;;;;;;;;;;;;26.21;53.98;95590.22;615711;230;64999;-66
2022/11/18 11:22:36;;;;;;;;;;;;;;;26.20;52.21;95578.67;600450;235;67307;-64
2022/11/18 11:25:05;;;;;;;;;;;;;;;26.20;52.89;95581.36;600439;236;65421;-64
2022/11/18 11:27:37;;;;;;;;;;;;;;;26.20;49.74;95583.28;605817;230;63017;-64
2022/11/18 11:30:10;;;;;;;;;;;;;;;26.20;52.91;95569.81;615676;230;67298;-64
2022/11/18 11:32:39;;;;;;;;;;;;;;;26.18;53.50;95561.28;615748;230;66991;-64
2022/11/18 11:35:08;;;;;;;;;;;;;;;26.19;53.66;95560.95;615479;230;65098;-66
2022/11/18 11:37:43;;;;;;;;;;;;;;;26.19;55.62;95569.03;615530;230;67276;-66
2022/11/18 11:40:18;;;;;;;;;;;;;;;26.16;51.44;95567.00;615736;230;64917;-66
2022/11/18 11:42:47;;;;;;;;;;;;;;;26.18;53.28;95569.36;615654;230;64888;-67
2022/11/18 11:45:16;;;;;;;;;;;;;;;26.18;54.34;95566.67;614733;230;66784;-68
2022/11/18 11:48:02;;;;;;;;;;;;;;;26.18;54.22;95575.53;610950;230;66850;-67
2022/11/18 11:50:57;;;;;;;;;;;;;;;26.17;52.47;95560.50;607455;233;63016;-67
2022/11/18 11:53:38;;;;;;;;;;;;;;;26.18;53.44;95551.30;607553;233;67432;-67
2022/11/18 11:56:25;;;;;;;;;;;;;;;26.16;51.79;95550.84;607388;233;47603;-66
2022/11/18 11:59:11;;;;;;;;;;;;;;;26.16;51.13;95553.53;607443;233;63027;-66
2022/11/18 12:01:43;;;;;;;;;;;;;;;26.17;54.45;95547.05;607540;233;67250;-65
2022/11/18 12:04:18;;;;;;;;;;;;;;;26.17;53.11;95540.88;606910;233;67039;-66
2022/11/18 12:06:47;;;;;;;;;;;;;;;26.16;53.24;95531.99;607275;233;65095;-66
2022/11/18 12:09:21;;;;;;;;;;;;;;;26.17;54.88;95530.89;607590;233;46847;-65
2022/11/18 12:11:59;;;;;;;;;;;;;;;26.16;53.40;95542.77;606993;233;67087;-64
2022/11/18 12:14:36;;;;;;;;;;;;;;;26.15;56.29;95533.13;607503;233;65351;-66
2022/11/18 12:17:10;;;;;;;;;;;;;;;26.15;54.22;95521.58;607428;233;67193;-65
2022/11/18 12:19:38;;;;;;;;;;;;;;;26.16;55.87;95520.45;607377;233;67036;-65
2022/11/18 12:22:06;;;;;;;;;;;;;;;26.12;52.75;95513.05;607479;231;62927;-66
2022/11/18 12:24:35;;;;;;;;;;;;;;;26.14;53.97;95499.27;607501;233;64753;-65
2022/11/18 12:27:11;;;;;;;;;;;;;;;26.13;55.62;95503.84;607404;233;67070;-66
2022/11/18 12:29:49;;;;;;;;;;;;;;;26.13;53.93;95493.07;607516;233;65042;-67
2022/11/18 12:32:25;;;;;;;;;;;;;;;26.13;55.35;95498.45;607037;233;64940;-66
2022/11/18 12:34:54;;;;;;;;;;;;;;;26.12;52.83;95479.97;605547;234;66880;-64
2022/11/18 12:37:27;;;;;;;;;;;;;;;26.13;54.75;95482.30;605464;234;65205;-66
2022/11/18 12:39:57;;;;;;;;;;;;;;;26.13;55.32;95470.75;600323;236;67242;-66
2022/11/18 12:45:43;;;;;;;;;;;;;;;26.12;55.50;95471.89;600327;236;62840;-65
2022/11/18 12:48:31;;;;;;;;;;;;;;;26.12;54.80;95469.20;600244;236;65125;-65
2022/11/18 12:51:03;;;;;;;;;;;;;;;26.12;52.66;95472.67;600291;236;67046;-65
2022/11/18 12:53:38;;;;;;;;;;;;;;;26.12;53.53;95469.20;600311;236;62840;-66
2022/11/18 12:56:13;;;;;;;;;;;;;;;26.13;52.92;95465.37;600275;236;67188;-66
2022/11/18 12:58:44;;;;;;;;;;;;;;;26.12;54.02;95456.52;600387;236;64937;-64
2022/11/18 13:01:13;;;;;;;;;;;;;;;26.13;53.52;95447.30;600322;236;63281;-63
2022/11/18 13:03:40;;;;;;;;;;;;;;;26.13;55.35;95454.59;600194;236;66941;-63
2022/11/18 13:06:09;;;;;;;;;;;;;;;26.13;54.89;95454.59;600292;235;67003;-63
2022/11/18 13:08:37;;;;;;;;;;;;;;;26.13;53.13;95455.38;597085;236;65094;-64
2022/11/18 13:19:24;;;;;;;;;;;;;;;26.16;54.55;95445.05;604237;233;65195;-64
2022/11/18 13:24:46;;;;;;;;;;;;;;;26.17;53.38;95436.65;604179;235;65342;-64
2022/11/18 13:27:15;;;;;;;;;;;;;;;26.18;52.23;95454.36;604241;235;67274;-64